»·PEaware :: N81041 KSNA-KPSP

N81041 :: KSNA-KPSP

FLIGHT INFORMATION

Flight Status: Arrived
Operator: Privately registered:
United States
More flights under this callsign
Pilot: John C. (12173)
Aircraft: MOONEY M-20 201 202 205 220 ATS MSE
(M20P)
More flights by this aircraft type
Origin: KSNA John Wayne-Orange Co
United States
Destination: KPSP Palm Springs Intl
United States
More flights between these airports :: More routes between these airports
Route: SLI V64 TRM
File this flight plan on PilotEdge
Remarks:
Altitude:
(Current/Filed)
9,000ft
Speed:
(Current/Filed)
170kts
Departed: 27-Dec-20 06:21 PM
Arrived: 27-Dec-20 07:16 PM
Distance/Time
Traveled:
68nm/0:55
Distance/Time
To Go:
Arrived

Flight Plot

Page will automatically refresh every two minutes.


Map Options




Map Legend


Flown Route
Filed Route
Departure Airport
Arrival Airport
Navaid (VOR, NDB)
Fix

Horizontal Profiles

Position Reports

Time Latitude Longitude Heading Altitude Ground
Speed
27-Dec-20 18:02 33.666939 -117.872628 196 46ft 0kts
27-Dec-20 18:03 33.666940 -117.872627 195 46ft 0kts
27-Dec-20 18:04 33.666940 -117.872627 195 46ft 0kts
27-Dec-20 18:05 33.666940 -117.872627 195 46ft 0kts
27-Dec-20 18:06 33.666940 -117.872627 195 46ft 0kts
27-Dec-20 18:07 33.666940 -117.872627 195 46ft 0kts
27-Dec-20 18:08 33.666940 -117.872627 195 46ft 0kts
27-Dec-20 18:09 33.666940 -117.872627 195 46ft 0kts
27-Dec-20 18:10 33.666940 -117.872627 195 46ft 0kts
27-Dec-20 18:11 33.666940 -117.872627 195 46ft 0kts
27-Dec-20 18:12 33.666940 -117.872627 195 46ft 0kts
27-Dec-20 18:13 33.666940 -117.872627 195 46ft 0kts
27-Dec-20 18:13 33.666940 -117.872627 195 46ft 0kts
27-Dec-20 18:15 33.667773 -117.872356 39 46ft 20kts
27-Dec-20 18:16 33.673137 -117.867236 42 45ft 25kts
27-Dec-20 18:17 33.675836 -117.865996 26 45ft 9kts
27-Dec-20 18:17 33.679845 -117.863624 324 45ft 1kts
27-Dec-20 18:18 33.679905 -117.863666 327 45ft 0kts
27-Dec-20 18:19 33.679770 -117.864418 200 45ft 0kts
27-Dec-20 18:20 33.661619 -117.873727 219 757ft 91kts
27-Dec-20 18:21 33.643298 -117.895651 249 2063ft 98kts
27-Dec-20 18:22 33.660445 -117.899321 85 3345ft 117kts
27-Dec-20 18:23 33.655552 -117.861912 99 4633ft 115kts
27-Dec-20 18:24 33.650646 -117.823628 100 5849ft 115kts
27-Dec-20 18:25 33.646455 -117.784226 96 6807ft 137kts
27-Dec-20 18:26 33.638768 -117.733586 93 6999ft 165kts
27-Dec-20 18:27 33.630438 -117.678570 104 7110ft 174kts
27-Dec-20 18:28 33.619862 -117.621199 100 7154ft 176kts
27-Dec-20 18:29 33.612348 -117.561534 100 6937ft 160kts
27-Dec-20 18:30 33.604091 -117.503456 101 6917ft 181kts
27-Dec-20 18:31 33.594174 -117.443655 108 7060ft 183kts
27-Dec-20 18:32 33.581641 -117.384223 99 7092ft 182kts
27-Dec-20 18:33 33.565001 -117.326926 102 7043ft 186kts
27-Dec-20 18:34 33.574700 -117.267842 70 7082ft 183kts
27-Dec-20 18:35 33.586899 -117.212177 73 7605ft 158kts
27-Dec-20 18:36 33.606208 -117.170435 73 8402ft 145kts
27-Dec-20 18:37 33.618135 -117.121664 71 8804ft 156kts
27-Dec-20 18:38 33.631185 -117.071260 67 8850ft 162kts
27-Dec-20 18:39 33.643907 -117.020977 68 8934ft 150kts
27-Dec-20 18:40 33.658038 -116.973249 73 8935ft 150kts
27-Dec-20 18:41 33.672389 -116.925520 69 8927ft 152kts
27-Dec-20 18:42 33.686867 -116.877257 81 8938ft 157kts
27-Dec-20 18:43 33.681682 -116.825900 93 8939ft 158kts
27-Dec-20 18:44 33.680619 -116.773827 91 9058ft 156kts
27-Dec-20 18:45 33.680135 -116.720062 89 8949ft 162kts
27-Dec-20 18:46 33.676823 -116.666641 109 8837ft 160kts
27-Dec-20 18:47 33.665923 -116.615417 99 8899ft 160kts
27-Dec-20 18:49 33.663854 -116.553395 70 8846ft 158kts
27-Dec-20 18:49 33.659722 -116.509699 104 8658ft 164kts
27-Dec-20 18:50 33.655583 -116.457002 87 8779ft 155kts
27-Dec-20 18:51 33.650197 -116.405431 96 8734ft 156kts
27-Dec-20 18:52 33.646412 -116.354891 95 9033ft 159kts
27-Dec-20 18:53 33.642696 -116.301646 95 8780ft 167kts
27-Dec-20 18:54 33.637985 -116.247750 101 8439ft 161kts
27-Dec-20 18:55 33.630638 -116.198718 94 8521ft 147kts
27-Dec-20 18:56 33.625387 -116.147796 118 7900ft 171kts
27-Dec-20 18:57 33.601316 -116.103593 129 6703ft 150kts
27-Dec-20 18:58 33.613233 -116.079789 303 5519ft 134kts
27-Dec-20 18:59 33.607406 -116.117492 268 4836ft 117kts
27-Dec-20 19:00 33.622836 -116.150693 304 4172ft 109kts
27-Dec-20 19:01 33.640109 -116.180305 298 3594ft 104kts
27-Dec-20 19:02 33.654540 -116.209905 299 3261ft 97kts
27-Dec-20 19:03 33.668954 -116.237965 299 3084ft 98kts
27-Dec-20 19:04 33.683200 -116.265705 300 2905ft 94kts
27-Dec-20 19:05 33.697119 -116.291671 300 2914ft 96kts
27-Dec-20 19:06 33.710910 -116.317891 300 2958ft 97kts
27-Dec-20 19:07 33.726001 -116.343743 308 2834ft 92kts
27-Dec-20 19:08 33.743118 -116.365943 310 2779ft 93kts
27-Dec-20 19:09 33.759858 -116.387702 307 2908ft 90kts
27-Dec-20 19:10 33.775898 -116.411182 304 2779ft 92kts
27-Dec-20 19:11 33.791277 -116.435563 304 2371ft 91kts
27-Dec-20 19:12 33.800417 -116.462888 275 1668ft 86kts
27-Dec-20 19:13 33.809506 -116.488533 307 730ft 80kts
27-Dec-20 19:14 33.824951 -116.503411 322 416ft 51kts
27-Dec-20 19:15 33.828260 -116.506629 286 433ft 25kts
27-Dec-20 19:16 33.825832 -116.507096 203 430ft 16kts

Navigation Log

Ident Type
Flight plan parsing failed, navigation log unavailable